Time;durP1;ratioP1;P1;durP2;ratioP2;P2;SDS_P1;SDS_P2;PMS_P1;PMS_P2;Temp;Humidity;BMP_temperature;BMP_pressure;BME280_temperature;BME280_humidity;BME280_pressure;Samples;Min_cycle;Max_cycle;Signal;HPM_P1;HPM_P2
2022/10/09 02:22:08;;;;;;;;;;;15.00;70.30;;;;;;5101567;28;19930;-71
2022/10/09 02:24:34;;;;;;;;;;;15.00;70.30;;;;;;5104192;28;19916;-71
2022/10/09 02:27:01;;;;;;;;;;;15.00;72.40;;;;;;5090118;28;20290;-70
2022/10/09 02:29:28;;;;;;;;;;;14.90;69.30;;;;;;5107362;28;19922;-71
2022/10/09 02:31:54;;;;;;;;;;;14.90;70.50;;;;;;5089511;28;19916;-71
2022/10/09 02:34:21;;;;;;;;;;;14.90;72.30;;;;;;5107309;27;20015;-71
2022/10/09 02:36:48;;;;;;;;;;;14.90;72.80;;;;;;5086438;28;19916;-71
2022/10/09 02:39:14;;;;;;;;;;;15.00;72.30;;;;;;5089488;28;19991;-71
2022/10/09 02:41:41;;;;;;;;;;;15.00;70.30;;;;;;5099246;28;19922;-71
2022/10/09 02:44:08;;;;;;;;;;;15.00;70.20;;;;;;5092872;28;19916;-72
2022/10/09 02:46:34;;;;;;;;;;;15.00;69.20;;;;;;5099098;28;19911;-72
2022/10/09 02:49:01;;;;;;;;;;;15.10;69.70;;;;;;5096327;28;19916;-71
2022/10/09 02:51:28;;;;;;;;;;;15.20;69.70;;;;;;5091649;28;20025;-72
2022/10/09 02:53:54;;;;;;;;;;;15.30;70.60;;;;;;5101070;28;20374;-72
2022/10/09 02:56:21;;;;;;;;;;;15.20;68.20;;;;;;5101701;28;20061;-72
2022/10/09 02:58:48;;;;;;;;;;;15.20;67.30;;;;;;5099779;28;19912;-71
2022/10/09 03:01:15;;;;;;;;;;;15.30;69.90;;;;;;5099799;28;19912;-72
2022/10/09 03:03:41;;;;;;;;;;;15.20;67.50;;;;;;5097162;28;19919;-72
2022/10/09 03:06:09;;;;;;;;;;;15.20;68.20;;;;;;5097950;28;19972;-72
2022/10/09 03:08:37;;;;;;;;;;;15.20;69.70;;;;;;5083556;28;19915;-72
2022/10/09 03:11:03;;;;;;;;;;;15.20;69.70;;;;;;5089538;28;20404;-72
2022/10/09 03:13:31;;;;;;;;;;;15.30;70.50;;;;;;5086925;28;20006;-72
2022/10/09 03:16:08;;;;;;;;;;;15.30;69.00;;;;;;5095142;28;19920;-70
2022/10/09 03:18:34;;;;;;;;;;;15.30;68.50;;;;;;5104958;28;19924;-72
2022/10/09 03:21:04;;;;;;;;;;;15.30;68.00;;;;;;5100777;28;19928;-71
2022/10/09 03:23:31;;;;;;;;;;;15.20;66.10;;;;;;5104746;28;19912;-71
2022/10/09 03:25:58;;;;;;;;;;;15.20;66.20;;;;;;5102933;28;19996;-73
2022/10/09 03:28:24;;;;;;;;;;;15.10;68.30;;;;;;5100627;27;19923;-73
2022/10/09 03:30:51;;;;;;;;;;;15.10;68.80;;;;;;5104990;28;19904;-72
2022/10/09 03:33:18;;;;;;;;;;;15.00;67.40;;;;;;5104024;27;19912;-72
2022/10/09 03:35:45;;;;;;;;;;;15.00;70.30;;;;;;5096084;28;19920;-71
2022/10/09 03:38:12;;;;;;;;;;;15.10;68.90;;;;;;5102731;28;20003;-72
2022/10/09 03:40:39;;;;;;;;;;;15.10;68.40;;;;;;5095788;27;20368;-72
2022/10/09 03:43:06;;;;;;;;;;;15.20;70.40;;;;;;5093405;28;19908;-72
2022/10/09 03:45:32;;;;;;;;;;;15.30;66.70;;;;;;5110459;28;19941;-72
2022/10/09 03:47:59;;;;;;;;;;;15.30;69.60;;;;;;5093750;28;19916;-73
2022/10/09 03:50:25;;;;;;;;;;;15.30;69.40;;;;;;5092954;28;19938;-72
2022/10/09 03:52:52;;;;;;;;;;;15.30;65.10;;;;;;5100944;28;19916;-72
2022/10/09 03:55:19;;;;;;;;;;;15.40;66.50;;;;;;5109883;27;19926;-73
2022/10/09 03:57:46;;;;;;;;;;;15.40;67.30;;;;;;5096419;28;20297;-72
2022/10/09 04:00:13;;;;;;;;;;;15.40;66.40;;;;;;5088031;28;19912;-72
2022/10/09 04:02:39;;;;;;;;;;;15.40;67.00;;;;;;5105826;28;20366;-72
2022/10/09 04:05:06;;;;;;;;;;;15.40;65.30;;;;;;5109224;27;19920;-72
2022/10/09 04:07:33;;;;;;;;;;;15.40;64.90;;;;;;5098119;27;20062;-73
2022/10/09 04:10:00;;;;;;;;;;;15.40;69.30;;;;;;5102514;28;19915;-72
2022/10/09 04:12:26;;;;;;;;;;;15.40;68.50;;;;;;5107720;28;19945;-71
2022/10/09 04:14:53;;;;;;;;;;;15.40;66.40;;;;;;5109606;28;19967;-72
2022/10/09 04:17:20;;;;;;;;;;;15.40;66.40;;;;;;5113089;28;19912;-72
2022/10/09 04:19:46;;;;;;;;;;;15.40;66.70;;;;;;5111294;28;20006;-73
2022/10/09 04:22:13;;;;;;;;;;;15.50;66.70;;;;;;5106008;27;19985;-73
2022/10/09 04:24:40;;;;;;;;;;;15.60;68.20;;;;;;5112300;28;20000;-72
2022/10/09 04:27:06;;;;;;;;;;;15.50;67.60;;;;;;5110664;28;19934;-74
2022/10/09 04:29:33;;;;;;;;;;;15.60;67.60;;;;;;5103856;28;19916;-72
2022/10/09 04:32:00;;;;;;;;;;;15.60;68.40;;;;;;5109580;28;20329;-72
2022/10/09 04:34:26;;;;;;;;;;;15.60;68.60;;;;;;5109607;28;20696;-72
2022/10/09 04:36:53;;;;;;;;;;;15.50;66.70;;;;;;5089334;28;19928;-72
2022/10/09 04:39:20;;;;;;;;;;;15.50;69.10;;;;;;5104679;28;19909;-71
2022/10/09 04:41:46;;;;;;;;;;;15.50;66.40;;;;;;5108070;27;20370;-71
2022/10/09 04:44:13;;;;;;;;;;;15.50;67.10;;;;;;5099520;27;20064;-73
2022/10/09 04:46:39;;;;;;;;;;;15.60;66.40;;;;;;5093332;28;19938;-74
2022/10/09 04:49:06;;;;;;;;;;;15.70;68.50;;;;;;5106072;27;20385;-72
2022/10/09 04:51:33;;;;;;;;;;;15.70;66.80;;;;;;5106989;28;19916;-73
2022/10/09 04:54:01;;;;;;;;;;;15.70;65.80;;;;;;5105558;28;19919;-73
2022/10/09 04:56:27;;;;;;;;;;;15.60;66.30;;;;;;5096722;28;19927;-72
2022/10/09 04:58:54;;;;;;;;;;;15.60;66.00;;;;;;5109483;28;19998;-73
2022/10/09 05:01:21;;;;;;;;;;;15.50;66.70;;;;;;5105750;27;20366;-73
2022/10/09 05:03:48;;;;;;;;;;;15.60;66.00;;;;;;5108378;28;20464;-72
2022/10/09 05:06:15;;;;;;;;;;;15.70;66.90;;;;;;5105647;27;19927;-70
2022/10/09 05:08:41;;;;;;;;;;;15.60;65.80;;;;;;5110162;28;20357;-71
2022/10/09 05:11:09;;;;;;;;;;;15.50;68.50;;;;;;5109130;28;20029;-72
2022/10/09 05:13:37;;;;;;;;;;;15.60;67.80;;;;;;5097275;28;19947;-72
2022/10/09 05:16:04;;;;;;;;;;;15.50;67.90;;;;;;5108546;27;19945;-72
2022/10/09 05:18:31;;;;;;;;;;;15.40;69.00;;;;;;5108200;28;19966;-72
2022/10/09 05:20:57;;;;;;;;;;;15.40;70.10;;;;;;5100357;28;20444;-71
2022/10/09 05:23:24;;;;;;;;;;;15.40;69.60;;;;;;5088865;28;19920;-72
2022/10/09 05:25:57;;;;;;;;;;;15.30;68.10;;;;;;5090308;28;20003;-72
2022/10/09 05:28:24;;;;;;;;;;;15.30;68.60;;;;;;5104596;28;19922;-72
2022/10/09 05:30:51;;;;;;;;;;;15.30;68.80;;;;;;5086138;28;20002;-73
2022/10/09 05:33:17;;;;;;;;;;;15.30;69.30;;;;;;5084445;28;19913;-71
2022/10/09 05:35:51;;;;;;;;;;;15.30;69.60;;;;;;5086304;28;19986;-71
2022/10/09 05:38:18;;;;;;;;;;;15.30;69.40;;;;;;5091430;28;19912;-72
2022/10/09 05:40:51;;;;;;;;;;;15.30;69.30;;;;;;5098396;28;20007;-71
2022/10/09 05:43:18;;;;;;;;;;;15.30;68.80;;;;;;5099792;28;20378;-71
2022/10/09 05:45:45;;;;;;;;;;;15.20;69.80;;;;;;5104501;28;19969;-71
2022/10/09 05:48:11;;;;;;;;;;;15.20;68.90;;;;;;5098028;28;20297;-71
2022/10/09 05:50:38;;;;;;;;;;;15.20;70.20;;;;;;5091146;28;19920;-71
2022/10/09 05:53:05;;;;;;;;;;;15.30;69.60;;;;;;5088321;28;19916;-70
2022/10/09 05:55:31;;;;;;;;;;;15.30;67.60;;;;;;5090455;28;20351;-71
2022/10/09 05:57:58;;;;;;;;;;;15.30;67.20;;;;;;5101768;28;19916;-73
2022/10/09 06:00:25;;;;;;;;;;;15.40;66.10;;;;;;5091428;28;19962;-71
2022/10/09 06:02:51;;;;;;;;;;;15.30;64.30;;;;;;5088797;28;19924;-71
2022/10/09 06:05:18;;;;;;;;;;;15.30;64.70;;;;;;5096485;28;20028;-74
2022/10/09 06:07:45;;;;;;;;;;;15.30;65.30;;;;;;5095687;28;19941;-71
2022/10/09 06:10:12;;;;;;;;;;;15.30;66.10;;;;;;5070629;28;19912;-71
2022/10/09 06:12:39;;;;;;;;;;;15.30;66.00;;;;;;5094821;28;19966;-71
2022/10/09 06:15:06;;;;;;;;;;;15.30;65.50;;;;;;5098432;28;19944;-71
2022/10/09 06:17:32;;;;;;;;;;;15.30;65.70;;;;;;5087454;28;20023;-72
2022/10/09 06:19:59;;;;;;;;;;;15.30;66.40;;;;;;5090074;28;21089;-71
2022/10/09 06:22:26;;;;;;;;;;;15.30;66.60;;;;;;5099423;28;19923;-72
2022/10/09 06:24:52;;;;;;;;;;;15.20;66.50;;;;;;5103138;28;19922;-70
2022/10/09 06:27:19;;;;;;;;;;;15.20;68.70;;;;;;5106651;27;19916;-70
2022/10/09 06:29:46;;;;;;;;;;;15.30;68.80;;;;;;5108839;28;20342;-71
2022/10/09 06:32:12;;;;;;;;;;;15.30;67.80;;;;;;5101534;27;20388;-70
2022/10/09 06:34:39;;;;;;;;;;;15.30;67.40;;;;;;5109798;27;20456;-72
2022/10/09 06:37:10;;;;;;;;;;;15.30;67.90;;;;;;5111367;27;20293;-71
2022/10/09 06:39:36;;;;;;;;;;;15.30;67.90;;;;;;5107819;27;20014;-71
2022/10/09 06:42:03;;;;;;;;;;;15.30;68.60;;;;;;5115151;27;19912;-70
2022/10/09 06:44:30;;;;;;;;;;;15.20;68.60;;;;;;5102734;28;19916;-71
2022/10/09 06:46:56;;;;;;;;;;;15.20;67.40;;;;;;5105181;27;20354;-72
2022/10/09 06:49:23;;;;;;;;;;;15.20;67.90;;;;;;5106919;28;19926;-72
2022/10/09 06:51:50;;;;;;;;;;;15.20;69.60;;;;;;5107301;28;19947;-72
2022/10/09 06:54:16;;;;;;;;;;;15.20;69.20;;;;;;5105915;28;19984;-72
2022/10/09 06:56:43;;;;;;;;;;;15.20;69.20;;;;;;5100797;28;19920;-72
2022/10/09 06:59:10;;;;;;;;;;;15.20;67.80;;;;;;5104187;28;19951;-71
2022/10/09 07:39:08;;;;;;;;;;;15.00;67.80;;;;;;5106927;28;19977;-72
2022/10/09 07:41:35;;;;;;;;;;;15.00;68.70;;;;;;5108578;28;19923;-71
2022/10/09 07:44:01;;;;;;;;;;;15.00;68.00;;;;;;5106481;28;20008;-71
2022/10/09 07:46:28;;;;;;;;;;;14.90;67.80;;;;;;5104787;28;20545;-72
2022/10/09 07:48:55;;;;;;;;;;;15.00;68.90;;;;;;5099708;28;19916;-72
2022/10/09 07:51:25;;;;;;;;;;;14.90;67.90;;;;;;5106702;28;19924;-72
2022/10/09 07:53:52;;;;;;;;;;;14.90;68.30;;;;;;5107152;28;19973;-72
2022/10/09 07:56:19;;;;;;;;;;;14.90;69.80;;;;;;5107185;28;19967;-79
2022/10/09 07:58:52;;;;;;;;;;;14.90;68.90;;;;;;5107249;28;19915;-70
2022/10/09 08:01:19;;;;;;;;;;;14.90;68.70;;;;;;5101750;28;19916;-72
2022/10/09 08:03:46;;;;;;;;;;;14.90;69.10;;;;;;5104429;28;20008;-73
2022/10/09 08:06:12;;;;;;;;;;;14.90;69.00;;;;;;5104083;28;20464;-73
2022/10/09 08:08:39;;;;;;;;;;;14.80;69.00;;;;;;5088306;28;19935;-72
2022/10/09 08:11:09;;;;;;;;;;;14.90;69.00;;;;;;5108174;28;19965;-74
2022/10/09 08:13:36;;;;;;;;;;;14.80;69.30;;;;;;5112135;28;19957;-74
2022/10/09 08:16:02;;;;;;;;;;;14.90;69.40;;;;;;5090354;28;19961;-72
2022/10/09 08:18:29;;;;;;;;;;;14.90;69.70;;;;;;5108603;27;19923;-72
2022/10/09 08:21:02;;;;;;;;;;;14.90;70.00;;;;;;5109682;28;19927;-73
2022/10/09 08:23:29;;;;;;;;;;;14.90;70.60;;;;;;5109308;27;19915;-73
2022/10/09 08:25:56;;;;;;;;;;;14.90;70.30;;;;;;5111299;27;19919;-74
2022/10/09 08:28:23;;;;;;;;;;;14.90;71.20;;;;;;5107394;28;19919;-73
2022/10/09 08:30:49;;;;;;;;;;;14.90;71.50;;;;;;5111593;28;19916;-74
2022/10/09 08:33:20;;;;;;;;;;;14.90;70.70;;;;;;5112437;28;19912;-74
2022/10/09 08:35:48;;;;;;;;;;;14.90;71.80;;;;;;5095042;28;19967;-72
2022/10/09 08:38:15;;;;;;;;;;;14.90;71.50;;;;;;5114002;27;19919;-72
2022/10/09 08:40:43;;;;;;;;;;;14.90;72.20;;;;;;5115759;27;20006;-72
2022/10/09 08:43:13;;;;;;;;;;;14.80;72.80;;;;;;5093972;28;19934;-72
2022/10/09 08:45:39;;;;;;;;;;;14.80;72.80;;;;;;5112361;27;19972;-71
2022/10/09 08:48:08;;;;;;;;;;;14.90;71.90;;;;;;5115822;27;19915;-71
2022/10/09 08:50:37;;;;;;;;;;;14.90;72.20;;;;;;5094307;28;19922;-72
2022/10/09 08:53:21;;;;;;;;;;;14.90;72.50;;;;;;5088303;28;19955;-70
2022/10/09 08:55:58;;;;;;;;;;;14.90;72.50;;;;;;5117418;27;20028;-70
2022/10/09 08:58:25;;;;;;;;;;;15.00;73.20;;;;;;5092960;28;19918;-72
2022/10/09 09:00:56;;;;;;;;;;;15.00;72.80;;;;;;5090386;27;20285;-73
2022/10/09 09:03:41;;;;;;;;;;;14.90;72.70;;;;;;5098099;28;19927;-72
2022/10/09 09:06:20;;;;;;;;;;;14.90;73.40;;;;;;5111825;27;19960;-70
2022/10/09 09:09:04;;;;;;;;;;;14.90;73.40;;;;;;5116913;27;19918;-71
2022/10/09 09:11:34;;;;;;;;;;;14.90;73.40;;;;;;5123696;27;19914;-70
2022/10/09 09:14:18;;;;;;;;;;;14.90;73.40;;;;;;5118717;27;19911;-72
2022/10/09 09:16:51;;;;;;;;;;;14.90;72.80;;;;;;5114205;27;20362;-71
2022/10/09 09:28:17;;;;;;;;;;;15.00;73.50;;;;;;5100797;27;19930;-72
2022/10/09 09:30:45;;;;;;;;;;;14.90;72.80;;;;;;5107549;28;19948;-71
2022/10/09 09:33:21;;;;;;;;;;;14.90;72.70;;;;;;5097880;28;19969;-70
2022/10/09 09:35:52;;;;;;;;;;;14.90;71.90;;;;;;5110358;27;19938;-70
2022/10/09 09:38:18;;;;;;;;;;;14.90;72.10;;;;;;5087538;28;19911;-73
2022/10/09 09:40:45;;;;;;;;;;;14.90;72.20;;;;;;5106639;28;19916;-72
2022/10/09 09:43:14;;;;;;;;;;;14.90;73.20;;;;;;5089949;28;19981;-72
2022/10/09 09:45:42;;;;;;;;;;;14.80;73.00;;;;;;5092738;28;20413;-72
2022/10/09 09:48:32;;;;;;;;;;;14.80;72.90;;;;;;5109035;27;19912;-73
2022/10/09 09:50:59;;;;;;;;;;;14.80;72.80;;;;;;5092304;28;19912;-73
2022/10/09 09:53:30;;;;;;;;;;;14.80;73.70;;;;;;5092315;28;19920;-74
2022/10/09 09:55:56;;;;;;;;;;;14.80;73.30;;;;;;5091505;28;20399;-73
2022/10/09 09:58:23;;;;;;;;;;;14.80;73.60;;;;;;5088925;27;19919;-74
2022/10/09 10:00:54;;;;;;;;;;;14.70;73.30;;;;;;5107737;28;19923;-74
2022/10/09 10:03:20;;;;;;;;;;;14.70;75.00;;;;;;5108855;28;19912;-73
2022/10/09 10:05:47;;;;;;;;;;;14.70;73.60;;;;;;5110572;28;19916;-73
2022/10/09 10:08:20;;;;;;;;;;;14.70;74.50;;;;;;5090532;28;19908;-73
2022/10/09 10:10:47;;;;;;;;;;;14.70;73.50;;;;;;5110389;27;20519;-73
2022/10/09 10:13:15;;;;;;;;;;;14.70;73.70;;;;;;5110692;28;19908;-73
2022/10/09 10:15:47;;;;;;;;;;;14.70;74.30;;;;;;5106907;28;19959;-72
2022/10/09 10:18:14;;;;;;;;;;;14.70;74.90;;;;;;5106825;28;19920;-73
2022/10/09 10:20:45;;;;;;;;;;;14.70;74.30;;;;;;5107401;28;19911;-73
2022/10/09 10:23:25;;;;;;;;;;;14.70;74.30;;;;;;5108830;27;20450;-73
2022/10/09 10:25:53;;;;;;;;;;;14.70;74.50;;;;;;5089840;28;20267;-73
2022/10/09 10:28:20;;;;;;;;;;;14.70;73.80;;;;;;5088207;28;20714;-73
2022/10/09 10:30:47;;;;;;;;;;;14.70;74.60;;;;;;5105647;28;19962;-73
2022/10/09 10:33:18;;;;;;;;;;;14.70;75.60;;;;;;5087943;28;19954;-74
2022/10/09 10:35:45;;;;;;;;;;;14.70;75.80;;;;;;5088221;28;19924;-72
2022/10/09 10:38:12;;;;;;;;;;;14.70;76.50;;;;;;5088270;28;19946;-74
2022/10/09 10:40:43;;;;;;;;;;;14.60;75.50;;;;;;5113015;27;20044;-72
2022/10/09 10:43:10;;;;;;;;;;;14.60;75.50;;;;;;5111215;28;19918;-73
2022/10/09 10:45:59;;;;;;;;;;;14.60;76.50;;;;;;5106460;28;19922;-72
2022/10/09 10:48:30;;;;;;;;;;;14.60;77.90;;;;;;5095466;28;19965;-75
2022/10/09 10:51:03;;;;;;;;;;;14.50;78.20;;;;;;5109691;28;19912;-73
2022/10/09 10:53:39;;;;;;;;;;;14.50;79.00;;;;;;5112115;28;19912;-72
2022/10/09 10:56:18;;;;;;;;;;;14.50;77.50;;;;;;5103027;28;19924;-73
2022/10/09 10:58:48;;;;;;;;;;;14.50;78.00;;;;;;5091416;28;19950;-74
2022/10/09 11:01:15;;;;;;;;;;;14.50;79.70;;;;;;5091108;28;19977;-73
2022/10/09 11:04:03;;;;;;;;;;;14.50;79.60;;;;;;5108027;27;19956;-73
2022/10/09 11:06:45;;;;;;;;;;;14.40;79.90;;;;;;5096903;28;19912;-73
2022/10/09 11:09:15;;;;;;;;;;;14.40;79.60;;;;;;5109683;28;20302;-73
2022/10/09 11:11:49;;;;;;;;;;;14.40;80.80;;;;;;5107785;28;20010;-76
2022/10/09 11:14:19;;;;;;;;;;;14.30;80.30;;;;;;5096812;28;19953;-73
2022/10/09 11:17:15;;;;;;;;;;;14.40;80.50;;;;;;5109294;28;19963;-73
2022/10/09 11:19:44;;;;;;;;;;;14.40;79.90;;;;;;5089009;28;19918;-74
2022/10/09 11:22:29;;;;;;;;;;;14.40;80.30;;;;;;5111215;28;19912;-74
2022/10/09 11:25:14;;;;;;;;;;;14.30;80.10;;;;;;5107087;28;19912;-74
2022/10/09 11:27:49;;;;;;;;;;;14.40;81.20;;;;;;5111537;28;20015;-74
2022/10/09 11:30:16;;;;;;;;;;;14.30;81.00;;;;;;5093907;28;19918;-72
2022/10/09 11:32:43;;;;;;;;;;;14.40;82.20;;;;;;5092792;28;19908;-72
2022/10/09 11:35:25;;;;;;;;;;;14.30;83.10;;;;;;5112272;28;19919;-73
2022/10/09 11:38:02;;;;;;;;;;;14.30;83.30;;;;;;5093256;28;20012;-73
2022/10/09 11:40:46;;;;;;;;;;;14.30;83.60;;;;;;5111996;28;19994;-72
2022/10/09 11:43:33;;;;;;;;;;;14.30;83.60;;;;;;5110561;28;19970;-72
2022/10/09 11:45:59;;;;;;;;;;;14.30;83.10;;;;;;5059130;28;19908;-73
2022/10/09 11:49:04;;;;;;;;;;;14.30;83.10;;;;;;5112831;28;19915;-72
2022/10/09 11:51:34;;;;;;;;;;;14.30;83.00;;;;;;5049351;28;19916;-73
2022/10/09 11:54:01;;;;;;;;;;;14.30;82.90;;;;;;5051776;28;20443;-73
2022/10/09 11:56:28;;;;;;;;;;;14.20;83.70;;;;;;5081935;28;19926;-73
2022/10/09 11:59:18;;;;;;;;;;;14.20;83.40;;;;;;5113917;27;19977;-73
2022/10/09 12:01:46;;;;;;;;;;;14.20;83.70;;;;;;5111661;27;19912;-74
2022/10/09 12:04:13;;;;;;;;;;;14.20;84.20;;;;;;5112039;28;20393;-76
2022/10/09 12:07:12;;;;;;;;;;;14.20;83.50;;;;;;5109212;28;19912;-75
2022/10/09 12:09:39;;;;;;;;;;;14.20;84.40;;;;;;5072472;28;19919;-75
2022/10/09 12:12:07;;;;;;;;;;;14.20;84.00;;;;;;5115149;28;19912;-74
2022/10/09 12:14:36;;;;;;;;;;;14.20;83.50;;;;;;5093429;28;20374;-74
2022/10/09 12:17:13;;;;;;;;;;;14.20;83.20;;;;;;5092915;27;19943;-73
2022/10/09 12:19:41;;;;;;;;;;;14.20;83.00;;;;;;5113944;28;20037;-75
2022/10/09 12:22:07;;;;;;;;;;;14.20;82.30;;;;;;5101149;28;19919;-75
2022/10/09 12:24:38;;;;;;;;;;;14.10;82.30;;;;;;5113549;28;19912;-75
2022/10/09 12:27:04;;;;;;;;;;;14.10;82.30;;;;;;5114925;27;19911;-74
2022/10/09 12:29:31;;;;;;;;;;;14.00;82.40;;;;;;5094943;28;19919;-75
2022/10/09 12:31:59;;;;;;;;;;;14.00;82.80;;;;;;5113913;28;20289;-75
2022/10/09 12:34:25;;;;;;;;;;;14.00;83.10;;;;;;5089938;28;19916;-75
2022/10/09 12:37:02;;;;;;;;;;;13.90;82.80;;;;;;5108542;28;19924;-75
2022/10/09 12:39:32;;;;;;;;;;;13.80;82.80;;;;;;5108350;28;19961;-74
2022/10/09 12:41:59;;;;;;;;;;;13.80;82.90;;;;;;5113123;28;19912;-75
2022/10/09 12:44:28;;;;;;;;;;;13.80;83.00;;;;;;5095921;28;19920;-74
2022/10/09 12:46:58;;;;;;;;;;;13.80;83.10;;;;;;5095822;28;19912;-75
2022/10/09 12:49:25;;;;;;;;;;;13.70;83.40;;;;;;5101340;28;19973;-75
2022/10/09 12:51:55;;;;;;;;;;;13.70;83.00;;;;;;5102945;28;19919;-74
2022/10/09 12:54:23;;;;;;;;;;;13.70;83.20;;;;;;5104631;28;19920;-74
2022/10/09 12:56:51;;;;;;;;;;;13.60;83.20;;;;;;5093744;28;20343;-74
2022/10/09 12:59:17;;;;;;;;;;;13.60;83.20;;;;;;5095821;28;20370;-74
2022/10/09 13:01:44;;;;;;;;;;;13.50;83.50;;;;;;5106310;28;19919;-74
2022/10/09 13:04:30;;;;;;;;;;;13.60;83.60;;;;;;5098125;28;19914;-74
2022/10/09 13:06:57;;;;;;;;;;;13.60;84.10;;;;;;5096559;28;19955;-74
2022/10/09 13:09:25;;;;;;;;;;;13.50;84.00;;;;;;5097689;28;19908;-74
2022/10/09 13:11:59;;;;;;;;;;;13.50;84.40;;;;;;5079453;28;19913;-74
2022/10/09 13:14:45;;;;;;;;;;;13.40;84.40;;;;;;5075613;28;20362;-74
2022/10/09 13:17:28;;;;;;;;;;;13.40;84.60;;;;;;5096099;28;19973;-75
2022/10/09 13:19:55;;;;;;;;;;;13.40;84.70;;;;;;5099444;28;19911;-75
2022/10/09 13:22:22;;;;;;;;;;;13.40;84.50;;;;;;5090642;28;19915;-74
2022/10/09 13:24:53;;;;;;;;;;;13.30;84.40;;;;;;5097495;28;19918;-74
2022/10/09 13:27:26;;;;;;;;;;;13.30;84.80;;;;;;5076084;28;19908;-74
2022/10/09 13:29:53;;;;;;;;;;;13.30;85.00;;;;;;5080311;28;19954;-75
2022/10/09 13:32:21;;;;;;;;;;;13.30;85.00;;;;;;5075606;28;19912;-74
2022/10/09 13:34:48;;;;;;;;;;;13.20;85.50;;;;;;5092171;28;19918;-75
2022/10/09 13:37:16;;;;;;;;;;;13.20;85.40;;;;;;5090286;28;19924;-75
2022/10/09 13:39:42;;;;;;;;;;;13.20;85.70;;;;;;5094144;28;20270;-75
2022/10/09 13:42:13;;;;;;;;;;;13.20;85.50;;;;;;5093101;28;20516;-75
2022/10/09 13:44:39;;;;;;;;;;;13.20;86.00;;;;;;5073648;28;19912;-74
2022/10/09 13:47:06;;;;;;;;;;;13.20;85.80;;;;;;5072828;28;19935;-75
2022/10/09 14:34:34;;;;;;;;;;;13.20;86.30;;;;;;5098021;28;19993;-74
2022/10/09 14:37:01;;;;;;;;;;;13.20;86.50;;;;;;5111623;28;19947;-75
2022/10/09 14:39:28;;;;;;;;;;;13.20;86.90;;;;;;5098603;28;19919;-74
2022/10/09 14:41:54;;;;;;;;;;;13.20;86.50;;;;;;5105376;28;19965;-75
2022/10/09 14:44:21;;;;;;;;;;;13.20;85.90;;;;;;5100665;28;19912;-74
2022/10/09 14:46:47;;;;;;;;;;;13.20;86.00;;;;;;5107963;28;20263;-74
2022/10/09 14:49:14;;;;;;;;;;;13.20;86.10;;;;;;5099700;28;20004;-74
2022/10/09 14:51:41;;;;;;;;;;;13.20;86.00;;;;;;5102731;28;19912;-74
2022/10/09 14:54:08;;;;;;;;;;;13.20;86.20;;;;;;5097347;28;19965;-75
2022/10/09 14:56:35;;;;;;;;;;;13.20;85.80;;;;;;5099382;28;19963;-74
2022/10/09 14:59:01;;;;;;;;;;;13.20;85.70;;;;;;5104491;28;19912;-75
2022/10/09 15:01:31;;;;;;;;;;;13.20;85.60;;;;;;5099838;28;19923;-75
2022/10/09 15:04:01;;;;;;;;;;;13.20;85.90;;;;;;5102710;28;19935;-75
2022/10/09 15:06:27;;;;;;;;;;;13.20;86.60;;;;;;5097961;28;19912;-75
2022/10/09 15:08:55;;;;;;;;;;;13.20;85.90;;;;;;5107151;28;19915;-75
2022/10/09 15:11:22;;;;;;;;;;;13.10;86.30;;;;;;5103170;28;20006;-75
2022/10/09 15:13:48;;;;;;;;;;;13.10;86.10;;;;;;5099990;28;19916;-74
2022/10/09 15:16:15;;;;;;;;;;;13.10;86.20;;;;;;5100594;28;20014;-75
2022/10/09 15:18:42;;;;;;;;;;;13.10;85.90;;;;;;5106977;28;19912;-75
2022/10/09 15:21:12;;;;;;;;;;;13.10;85.90;;;;;;5103303;28;19941;-75
2022/10/09 15:23:39;;;;;;;;;;;13.10;85.40;;;;;;5097355;28;19912;-74
2022/10/09 15:26:05;;;;;;;;;;;13.10;85.70;;;;;;5105249;28;19922;-74
2022/10/09 15:28:32;;;;;;;;;;;13.00;85.60;;;;;;5081324;28;19912;-74
2022/10/09 15:30:59;;;;;;;;;;;13.00;85.60;;;;;;5096476;28;19998;-74
2022/10/09 15:38:30;;;;;;;;;;;12.90;86.20;;;;;;5107944;28;19926;-75
2022/10/09 15:40:56;;;;;;;;;;;12.80;85.90;;;;;;5106337;28;19917;-75
2022/10/09 15:43:24;;;;;;;;;;;12.80;86.20;;;;;;5106132;28;19923;-74
2022/10/09 15:45:52;;;;;;;;;;;12.80;86.40;;;;;;5101045;28;19912;-73
2022/10/09 15:48:21;;;;;;;;;;;12.80;86.10;;;;;;5107973;28;19919;-74
2022/10/09 15:50:50;;;;;;;;;;;12.80;86.30;;;;;;5106706;28;20119;-74
2022/10/09 15:53:17;;;;;;;;;;;12.80;86.30;;;;;;5093560;28;19912;-74
2022/10/09 15:55:48;;;;;;;;;;;12.80;86.10;;;;;;5105205;28;19916;-74
2022/10/09 15:58:15;;;;;;;;;;;12.90;86.00;;;;;;5101317;28;19919;-75
2022/10/09 16:00:43;;;;;;;;;;;13.00;85.60;;;;;;5110040;28;20431;-74
2022/10/09 16:03:10;;;;;;;;;;;13.00;86.40;;;;;;5105493;28;19912;-75
2022/10/09 16:05:37;;;;;;;;;;;13.00;85.80;;;;;;5078248;28;19915;-74
2022/10/09 16:08:04;;;;;;;;;;;13.00;85.20;;;;;;5105331;28;19912;-74
2022/10/09 16:10:31;;;;;;;;;;;13.00;85.20;;;;;;5103587;28;20010;-75
2022/10/09 16:12:57;;;;;;;;;;;13.00;85.10;;;;;;5107656;28;19951;-75
2022/10/09 16:15:24;;;;;;;;;;;13.00;84.50;;;;;;5101740;28;20365;-74
2022/10/09 16:17:51;;;;;;;;;;;13.00;84.60;;;;;;5102249;28;20368;-74
2022/10/09 16:20:18;;;;;;;;;;;13.10;84.60;;;;;;5096056;28;19912;-74
2022/10/09 16:22:44;;;;;;;;;;;13.10;84.90;;;;;;5108734;28;20289;-74
2022/10/09 16:25:11;;;;;;;;;;;13.10;84.40;;;;;;5091648;28;20015;-74
2022/10/09 16:27:38;;;;;;;;;;;13.20;84.50;;;;;;5100262;28;19919;-75
2022/10/09 16:30:05;;;;;;;;;;;13.20;84.90;;;;;;5098726;28;19927;-75
2022/10/09 16:32:31;;;;;;;;;;;13.20;85.50;;;;;;5108396;28;19965;-74
2022/10/09 16:34:58;;;;;;;;;;;13.20;85.70;;;;;;5104660;28;19920;-74
2022/10/09 16:37:25;;;;;;;;;;;13.30;86.10;;;;;;5110155;28;19923;-74
2022/10/09 16:39:51;;;;;;;;;;;13.30;86.60;;;;;;5109234;27;19968;-74
2022/10/09 16:42:18;;;;;;;;;;;13.20;87.30;;;;;;5105717;27;20366;-74
2022/10/09 16:44:44;;;;;;;;;;;13.20;87.80;;;;;;5101556;28;19916;-73
2022/10/09 16:47:12;;;;;;;;;;;13.20;88.30;;;;;;5105913;28;19912;-74
2022/10/09 16:49:39;;;;;;;;;;;13.20;88.90;;;;;;5109421;28;20051;-74
2022/10/09 16:52:06;;;;;;;;;;;13.20;89.30;;;;;;5103136;28;19916;-74
2022/10/09 16:54:32;;;;;;;;;;;13.20;89.80;;;;;;5101492;28;19916;-74
2022/10/09 16:57:00;;;;;;;;;;;13.20;90.20;;;;;;5111673;28;19926;-74
2022/10/09 16:59:27;;;;;;;;;;;13.20;90.40;;;;;;5106508;27;19911;-74
2022/10/09 17:01:55;;;;;;;;;;;13.20;90.70;;;;;;5099760;28;19916;-74
2022/10/09 17:04:22;;;;;;;;;;;13.20;90.80;;;;;;5110790;28;19911;-74
2022/10/09 17:06:50;;;;;;;;;;;13.10;91.00;;;;;;5106721;28;19957;-73
2022/10/09 17:09:16;;;;;;;;;;;13.10;91.30;;;;;;5109095;28;19995;-74
2022/10/09 17:11:43;;;;;;;;;;;13.00;91.30;;;;;;5105666;28;19916;-74
2022/10/09 17:14:10;;;;;;;;;;;13.00;91.40;;;;;;5103402;28;19954;-74
2022/10/09 17:16:38;;;;;;;;;;;13.00;91.70;;;;;;5106523;28;19958;-74
2022/10/09 17:19:05;;;;;;;;;;;13.00;91.50;;;;;;5102887;28;19947;-73
2022/10/09 17:21:31;;;;;;;;;;;13.00;90.90;;;;;;5106571;28;19916;-73
2022/10/09 17:23:59;;;;;;;;;;;12.90;90.90;;;;;;5105107;28;19990;-74
2022/10/09 17:26:25;;;;;;;;;;;12.90;91.10;;;;;;5100385;28;19923;-74
2022/10/09 17:28:52;;;;;;;;;;;12.90;91.10;;;;;;5107788;28;19923;-74
2022/10/09 17:31:20;;;;;;;;;;;13.00;91.20;;;;;;5110080;28;19957;-74
2022/10/09 17:33:47;;;;;;;;;;;13.00;91.10;;;;;;5110113;28;19912;-74
2022/10/09 17:36:17;;;;;;;;;;;13.00;91.10;;;;;;5100847;27;19977;-74
2022/10/09 17:38:44;;;;;;;;;;;13.00;90.70;;;;;;5102685;28;19920;-73
2022/10/09 17:41:11;;;;;;;;;;;13.00;90.30;;;;;;5111426;28;19987;-74
2022/10/09 17:43:38;;;;;;;;;;;12.90;89.90;;;;;;5110465;28;19912;-75
2022/10/09 17:46:05;;;;;;;;;;;12.90;90.20;;;;;;5105849;28;19915;-74
2022/10/09 17:48:32;;;;;;;;;;;12.90;90.50;;;;;;5102303;28;20388;-74
2022/10/09 17:50:59;;;;;;;;;;;13.00;90.60;;;;;;5094103;28;19941;-74
2022/10/09 17:53:26;;;;;;;;;;;13.00;90.90;;;;;;5091043;28;19915;-74
2022/10/09 17:55:53;;;;;;;;;;;13.00;90.70;;;;;;5110564;28;19963;-73
2022/10/09 17:58:20;;;;;;;;;;;12.90;90.90;;;;;;5109040;28;19931;-74
2022/10/09 18:00:47;;;;;;;;;;;12.90;90.70;;;;;;5092980;28;19937;-74
2022/10/09 18:03:14;;;;;;;;;;;12.80;90.80;;;;;;5112055;28;20389;-74
2022/10/09 18:05:44;;;;;;;;;;;12.70;91.20;;;;;;5111211;28;19918;-74
2022/10/09 18:08:11;;;;;;;;;;;12.70;91.80;;;;;;5082594;28;19916;-74
2022/10/09 18:10:38;;;;;;;;;;;12.70;92.20;;;;;;5106908;28;19911;-76
2022/10/09 18:13:05;;;;;;;;;;;12.70;92.50;;;;;;5111446;28;19919;-75
2022/10/09 18:15:35;;;;;;;;;;;12.70;92.50;;;;;;5111782;28;19981;-74
2022/10/09 18:18:02;;;;;;;;;;;12.70;92.50;;;;;;5109729;28;19935;-75
2022/10/09 18:20:31;;;;;;;;;;;12.70;92.80;;;;;;5095716;28;20002;-75
2022/10/09 18:22:58;;;;;;;;;;;12.60;92.60;;;;;;5112884;28;20416;-74
